sensor_id;sensor_type;location;lat;lon;timestamp;pressure;altitude;pressure_sealevel;temperature;humidity
13420;BME280;6781;58.440;15.470;2024-02-21T00:00:14;103353.22;;;2.67;100.00
13420;BME280;6781;58.440;15.470;2024-02-21T00:02:41;103355.81;;;2.62;100.00
13420;BME280;6781;58.440;15.470;2024-02-21T00:05:08;103368.59;;;2.68;100.00
13420;BME280;6781;58.440;15.470;2024-02-21T00:07:34;103372.88;;;2.72;100.00
13420;BME280;6781;58.440;15.470;2024-02-21T00:10:03;103383.97;;;2.67;100.00
13420;BME280;6781;58.440;15.470;2024-02-21T00:12:30;103388.25;;;2.72;100.00
13420;BME280;6781;58.440;15.470;2024-02-21T00:14:56;103386.53;;;2.77;100.00
13420;BME280;6781;58.440;15.470;2024-02-21T00:17:23;103390.81;;;2.75;100.00
13420;BME280;6781;58.440;15.470;2024-02-21T00:19:51;103406.19;;;2.80;100.00
13420;BME280;6781;58.440;15.470;2024-02-21T00:22:18;103418.13;;;2.84;100.00
13420;BME280;6781;58.440;15.470;2024-02-21T00:24:44;103422.41;;;2.82;100.00
13420;BME280;6781;58.440;15.470;2024-02-21T00:27:13;103429.25;;;2.78;100.00
13420;BME280;6781;58.440;15.470;2024-02-21T00:29:39;103427.53;;;2.80;100.00
13420;BME280;6781;58.440;15.470;2024-02-21T00:32:06;103421.56;;;2.74;100.00
13420;BME280;6781;58.440;15.470;2024-02-21T00:34:33;103430.94;;;2.76;100.00
13420;BME280;6781;58.440;15.470;2024-02-21T00:37:00;103438.63;;;2.75;100.00
13420;BME280;6781;58.440;15.470;2024-02-21T00:39:27;103448.03;;;2.80;100.00
13420;BME280;6781;58.440;15.470;2024-02-21T00:41:54;103450.59;;;2.80;100.00
13420;BME280;6781;58.440;15.470;2024-02-21T00:44:22;103453.16;;;2.85;100.00
13420;BME280;6781;58.440;15.470;2024-02-21T00:46:49;103466.81;;;2.87;100.00
13420;BME280;6781;58.440;15.470;2024-02-21T00:49:16;103475.38;;;2.80;100.00
13420;BME280;6781;58.440;15.470;2024-02-21T00:51:42;103480.50;;;2.83;100.00
13420;BME280;6781;58.440;15.470;2024-02-21T00:54:09;103487.31;;;2.88;100.00
13420;BME280;6781;58.440;15.470;2024-02-21T00:56:36;103493.31;;;2.89;100.00
13420;BME280;6781;58.440;15.470;2024-02-21T00:59:03;103497.59;;;2.90;100.00
13420;BME280;6781;58.440;15.470;2024-02-21T01:01:31;103499.28;;;2.88;100.00
13420;BME280;6781;58.440;15.470;2024-02-21T01:03:58;103504.41;;;2.88;100.00
13420;BME280;6781;58.440;15.470;2024-02-21T01:06:25;103501.84;;;2.85;100.00
13420;BME280;6781;58.440;15.470;2024-02-21T01:08:52;103511.25;;;2.89;100.00
13420;BME280;6781;58.440;15.470;2024-02-21T01:11:19;103505.25;;;2.85;100.00
13420;BME280;6781;58.440;15.470;2024-02-21T01:13:45;103519.78;;;2.83;100.00
13420;BME280;6781;58.440;15.470;2024-02-21T01:16:12;103526.63;;;2.87;100.00
13420;BME280;6781;58.440;15.470;2024-02-21T01:18:41;103534.31;;;2.87;100.00
13420;BME280;6781;58.440;15.470;2024-02-21T01:21:07;103538.59;;;2.85;100.00
13420;BME280;6781;58.440;15.470;2024-02-21T01:23:35;103552.25;;;2.90;100.00
13420;BME280;6781;58.440;15.470;2024-02-21T01:26:02;103559.94;;;2.89;100.00
13420;BME280;6781;58.440;15.470;2024-02-21T01:28:29;103565.06;;;2.92;100.00
13420;BME280;6781;58.440;15.470;2024-02-21T01:30:56;103562.50;;;2.95;100.00
13420;BME280;6781;58.440;15.470;2024-02-21T01:33:23;103556.53;;;2.96;100.00
13420;BME280;6781;58.440;15.470;2024-02-21T01:35:51;103565.06;;;2.92;100.00
13420;BME280;6781;58.440;15.470;2024-02-21T01:38:18;103557.38;;;2.84;100.00
13420;BME280;6781;58.440;15.470;2024-02-21T01:40:45;103573.63;;;2.92;100.00
13420;BME280;6781;58.440;15.470;2024-02-21T01:43:15;103570.19;;;2.92;100.00
13420;BME280;6781;58.440;15.470;2024-02-21T01:45:43;103580.47;;;2.95;100.00
13420;BME280;6781;58.440;15.470;2024-02-21T01:48:10;103591.56;;;2.96;100.00
13420;BME280;6781;58.440;15.470;2024-02-21T01:50:36;103584.75;;;2.98;100.00
13420;BME280;6781;58.440;15.470;2024-02-21T01:53:05;103589.88;;;2.96;100.00
13420;BME280;6781;58.440;15.470;2024-02-21T01:55:31;103601.84;;;3.00;100.00
13420;BME280;6781;58.440;15.470;2024-02-21T01:57:59;103599.25;;;2.96;100.00
13420;BME280;6781;58.440;15.470;2024-02-21T02:00:26;103612.09;;;3.02;100.00
13420;BME280;6781;58.440;15.470;2024-02-21T02:02:53;103616.38;;;3.04;100.00
13420;BME280;6781;58.440;15.470;2024-02-21T02:05:20;103618.94;;;3.06;100.00
13420;BME280;6781;58.440;15.470;2024-02-21T02:07:47;103624.06;;;3.03;100.00
13420;BME280;6781;58.440;15.470;2024-02-21T02:10:16;103639.44;;;3.06;100.00
13420;BME280;6781;58.440;15.470;2024-02-21T02:12:42;103644.56;;;3.04;100.00
13420;BME280;6781;58.440;15.470;2024-02-21T02:15:09;103652.25;;;3.07;100.00
13420;BME280;6781;58.440;15.470;2024-02-21T02:17:36;103652.25;;;3.04;100.00
13420;BME280;6781;58.440;15.470;2024-02-21T02:20:03;103647.97;;;3.03;100.00
13420;BME280;6781;58.440;15.470;2024-02-21T02:22:30;103637.72;;;3.02;100.00
13420;BME280;6781;58.440;15.470;2024-02-21T02:24:59;103643.69;;;3.01;100.00
13420;BME280;6781;58.440;15.470;2024-02-21T02:27:26;103649.69;;;3.00;100.00
13420;BME280;6781;58.440;15.470;2024-02-21T02:29:53;103651.41;;;3.04;100.00
13420;BME280;6781;58.440;15.470;2024-02-21T02:32:20;103665.94;;;3.09;100.00
13420;BME280;6781;58.440;15.470;2024-02-21T02:34:46;103681.34;;;3.12;100.00
13420;BME280;6781;58.440;15.470;2024-02-21T02:37:13;103686.44;;;3.08;100.00
13420;BME280;6781;58.440;15.470;2024-02-21T02:39:40;103680.47;;;3.12;100.00
13420;BME280;6781;58.440;15.470;2024-02-21T02:42:08;103689.88;;;3.14;100.00
13420;BME280;6781;58.440;15.470;2024-02-21T02:44:35;103681.31;;;3.09;100.00
13420;BME280;6781;58.440;15.470;2024-02-21T02:47:02;103685.59;;;3.09;100.00
13420;BME280;6781;58.440;15.470;2024-02-21T02:49:29;103694.16;;;3.12;100.00
13420;BME280;6781;58.440;15.470;2024-02-21T02:51:56;103684.75;;;3.08;100.00
13420;BME280;6781;58.440;15.470;2024-02-21T02:54:22;103688.16;;;3.10;100.00
13420;BME280;6781;58.440;15.470;2024-02-21T02:56:49;103686.44;;;3.06;100.00
13420;BME280;6781;58.440;15.470;2024-02-21T02:59:18;103680.44;;;3.03;100.00
13420;BME280;6781;58.440;15.470;2024-02-21T03:04:20;103708.69;;;3.16;100.00
13420;BME280;6781;58.440;15.470;2024-02-21T03:06:47;103708.72;;;3.19;100.00
13420;BME280;6781;58.440;15.470;2024-02-21T03:09:13;103717.28;;;3.24;100.00
13420;BME280;6781;58.440;15.470;2024-02-21T03:11:40;103724.94;;;3.21;100.00
13420;BME280;6781;58.440;15.470;2024-02-21T03:14:09;103720.66;;;3.13;100.00
13420;BME280;6781;58.440;15.470;2024-02-21T03:16:37;103720.66;;;3.14;100.00
13420;BME280;6781;58.440;15.470;2024-02-21T03:19:04;103719.81;;;3.14;100.00
13420;BME280;6781;58.440;15.470;2024-02-21T03:21:31;103717.25;;;3.15;100.00
13420;BME280;6781;58.440;15.470;2024-02-21T03:23:58;103717.22;;;3.12;100.00
13420;BME280;6781;58.440;15.470;2024-02-21T03:26:25;103703.53;;;3.04;100.00
13420;BME280;6781;58.440;15.470;2024-02-21T03:28:51;103712.09;;;3.12;100.00
13420;BME280;6781;58.440;15.470;2024-02-21T03:31:18;103712.09;;;3.09;100.00
13420;BME280;6781;58.440;15.470;2024-02-21T03:33:46;103718.09;;;3.16;100.00
13420;BME280;6781;58.440;15.470;2024-02-21T03:36:13;103730.06;;;3.20;100.00
13420;BME280;6781;58.440;15.470;2024-02-21T03:38:40;103730.91;;;3.14;100.00
13420;BME280;6781;58.440;15.470;2024-02-21T03:41:07;103739.47;;;3.19;100.00
13420;BME280;6781;58.440;15.470;2024-02-21T03:43:34;103737.78;;;3.21;100.00
13420;BME280;6781;58.440;15.470;2024-02-21T03:46:00;103722.38;;;3.14;100.00
13420;BME280;6781;58.440;15.470;2024-02-21T03:48:27;103731.78;;;3.15;100.00
13420;BME280;6781;58.440;15.470;2024-02-21T03:50:56;103726.63;;;3.10;100.00
13420;BME280;6781;58.440;15.470;2024-02-21T03:53:22;103725.78;;;3.11;100.00
13420;BME280;6781;58.440;15.470;2024-02-21T03:55:49;103736.06;;;3.17;100.00
13420;BME280;6781;58.440;15.470;2024-02-21T03:58:16;103735.19;;;3.15;100.00
13420;BME280;6781;58.440;15.470;2024-02-21T04:00:43;103729.22;;;3.16;100.00
13420;BME280;6781;58.440;15.470;2024-02-21T04:03:09;103731.75;;;3.12;100.00
13420;BME280;6781;58.440;15.470;2024-02-21T04:05:36;103718.06;;;3.08;100.00
13420;BME280;6781;58.440;15.470;2024-02-21T04:08:04;103713.78;;;3.04;100.00
13420;BME280;6781;58.440;15.470;2024-02-21T04:10:31;103700.09;;;2.99;100.00
13420;BME280;6781;58.440;15.470;2024-02-21T04:13:03;103696.69;;;3.00;100.00
13420;BME280;6781;58.440;15.470;2024-02-21T04:15:30;103689.00;;;3.00;100.00
13420;BME280;6781;58.440;15.470;2024-02-21T04:17:57;103672.75;;;2.98;100.00
13420;BME280;6781;58.440;15.470;2024-02-21T04:20:23;103662.50;;;2.98;100.00
13420;BME280;6781;58.440;15.470;2024-02-21T04:22:50;103653.94;;;2.96;100.00
13420;BME280;6781;58.440;15.470;2024-02-21T04:25:18;103657.38;;;3.00;100.00
13420;BME280;6781;58.440;15.470;2024-02-21T04:27:45;103652.25;;;2.98;100.00
13420;BME280;6781;58.440;15.470;2024-02-21T04:30:12;103665.06;;;3.04;100.00
13420;BME280;6781;58.440;15.470;2024-02-21T04:32:39;103666.78;;;3.05;100.00
13420;BME280;6781;58.440;15.470;2024-02-21T04:35:06;103671.06;;;3.09;100.00
13420;BME280;6781;58.440;15.470;2024-02-21T04:37:33;103686.47;;;3.15;100.00
13420;BME280;6781;58.440;15.470;2024-02-21T04:39:59;103694.16;;;3.09;100.00
13420;BME280;6781;58.440;15.470;2024-02-21T04:42:28;103700.97;;;3.09;100.00
13420;BME280;6781;58.440;15.470;2024-02-21T04:44:54;103703.56;;;3.13;100.00
13420;BME280;6781;58.440;15.470;2024-02-21T04:47:21;103692.41;;;3.04;100.00
13420;BME280;6781;58.440;15.470;2024-02-21T04:49:48;103705.25;;;3.11;100.00
13420;BME280;6781;58.440;15.470;2024-02-21T04:52:15;103656.47;;;2.82;100.00
13420;BME280;6781;58.440;15.470;2024-02-21T04:54:42;103539.44;;;3.13;100.00
13420;BME280;6781;58.440;15.470;2024-02-21T04:57:09;103539.44;;;3.10;100.00
13420;BME280;6781;58.440;15.470;2024-02-21T04:59:37;103530.06;;;3.12;100.00
13420;BME280;6781;58.440;15.470;2024-02-21T05:02:04;103532.63;;;3.02;100.00
13420;BME280;6781;58.440;15.470;2024-02-21T05:04:31;103534.31;;;3.07;100.00
13420;BME280;6781;58.440;15.470;2024-02-21T05:06:57;103519.78;;;2.99;100.00
13420;BME280;6781;58.440;15.470;2024-02-21T05:09:26;103532.63;;;3.03;100.00
13420;BME280;6781;58.440;15.470;2024-02-21T05:11:53;103521.50;;;3.06;100.00
13420;BME280;6781;58.440;15.470;2024-02-21T05:14:19;103522.38;;;3.00;100.00
13420;BME280;6781;58.440;15.470;2024-02-21T05:16:48;103530.06;;;3.08;100.00
13420;BME280;6781;58.440;15.470;2024-02-21T05:19:14;103535.19;;;3.08;100.00
13420;BME280;6781;58.440;15.470;2024-02-21T05:21:41;103542.88;;;3.12;100.00
13420;BME280;6781;58.440;15.470;2024-02-21T05:24:08;103532.63;;;3.09;100.00
13420;BME280;6781;58.440;15.470;2024-02-21T05:26:35;103527.50;;;3.03;100.00
13420;BME280;6781;58.440;15.470;2024-02-21T05:29:02;103542.03;;;3.10;100.00
13420;BME280;6781;58.440;15.470;2024-02-21T05:31:33;103537.75;;;3.12;100.00
13420;BME280;6781;58.440;15.470;2024-02-21T05:34:10;103542.88;;;3.12;100.00
13420;BME280;6781;58.440;15.470;2024-02-21T05:36:37;103545.44;;;3.15;100.00
13420;BME280;6781;58.440;15.470;2024-02-21T05:39:04;103546.28;;;3.13;100.00
13420;BME280;6781;58.440;15.470;2024-02-21T05:41:31;103552.28;;;3.12;100.00
13420;BME280;6781;58.440;15.470;2024-02-21T05:43:58;103552.28;;;3.16;100.00
13420;BME280;6781;58.440;15.470;2024-02-21T05:46:25;103548.84;;;3.14;100.00
13420;BME280;6781;58.440;15.470;2024-02-21T05:48:51;103556.56;;;3.14;100.00
13420;BME280;6781;58.440;15.470;2024-02-21T05:51:20;103570.22;;;3.22;100.00
13420;BME280;6781;58.440;15.470;2024-02-21T05:53:47;103571.09;;;3.21;100.00
13420;BME280;6781;58.440;15.470;2024-02-21T05:56:14;103576.22;;;3.24;100.00
13420;BME280;6781;58.440;15.470;2024-02-21T05:58:40;103570.22;;;3.25;100.00
13420;BME280;6781;58.440;15.470;2024-02-21T06:01:07;103583.91;;;3.29;100.00
13420;BME280;6781;58.440;15.470;2024-02-21T06:03:34;103589.03;;;3.31;100.00
13420;BME280;6781;58.440;15.470;2024-02-21T06:06:01;103608.69;;;3.38;100.00
13420;BME280;6781;58.440;15.470;2024-02-21T06:08:31;103622.34;;;3.47;100.00
13420;BME280;6781;58.440;15.470;2024-02-21T06:10:58;103615.53;;;3.43;100.00
13420;BME280;6781;58.440;15.470;2024-02-21T06:13:25;103616.41;;;3.41;100.00
13420;BME280;6781;58.440;15.470;2024-02-21T06:15:51;103616.38;;;3.47;100.00
13420;BME280;6781;58.440;15.470;2024-02-21T06:18:19;103621.50;;;3.47;100.00
13420;BME280;6781;58.440;15.470;2024-02-21T06:20:46;103629.19;;;3.48;100.00
13420;BME280;6781;58.440;15.470;2024-02-21T06:23:14;103631.75;;;3.47;100.00
13420;BME280;6781;58.440;15.470;2024-02-21T06:25:43;103632.66;;;3.46;100.00
13420;BME280;6781;58.440;15.470;2024-02-21T06:28:10;103641.19;;;3.46;100.00
13420;BME280;6781;58.440;15.470;2024-02-21T06:30:37;103650.56;;;3.49;100.00
13420;BME280;6781;58.440;15.470;2024-02-21T06:33:04;103651.47;;;3.45;100.00
13420;BME280;6781;58.440;15.470;2024-02-21T06:35:33;103657.41;;;3.47;100.00
13420;BME280;6781;58.440;15.470;2024-02-21T06:37:59;103663.41;;;3.49;100.00
13420;BME280;6781;58.440;15.470;2024-02-21T06:40:26;103668.53;;;3.47;100.00
13420;BME280;6781;58.440;15.470;2024-02-21T06:42:54;103676.22;;;3.52;100.00
13420;BME280;6781;58.440;15.470;2024-02-21T06:45:21;103695.91;;;3.60;100.00
13420;BME280;6781;58.440;15.470;2024-02-21T06:47:48;103691.63;;;3.58;100.00
13420;BME280;6781;58.440;15.470;2024-02-21T06:50:15;103689.91;;;3.57;100.00
13420;BME280;6781;58.440;15.470;2024-02-21T06:52:42;103693.34;;;3.56;100.00
13420;BME280;6781;58.440;15.470;2024-02-21T06:55:09;103703.59;;;3.62;100.00
13420;BME280;6781;58.440;15.470;2024-02-21T06:57:35;103701.91;;;3.61;100.00
13420;BME280;6781;58.440;15.470;2024-02-21T07:00:04;103698.47;;;3.59;100.00
13420;BME280;6781;58.440;15.470;2024-02-21T07:02:33;103697.63;;;3.55;100.00
13420;BME280;6781;58.440;15.470;2024-02-21T07:05:00;103686.50;;;3.52;100.00
13420;BME280;6781;58.440;15.470;2024-02-21T07:07:26;103684.78;;;3.51;100.00
13420;BME280;6781;58.440;15.470;2024-02-21T07:09:54;103684.78;;;3.54;100.00
13420;BME280;6781;58.440;15.470;2024-02-21T07:12:21;103673.66;;;3.50;100.00
13420;BME280;6781;58.440;15.470;2024-02-21T07:14:48;103683.06;;;3.53;100.00
13420;BME280;6781;58.440;15.470;2024-02-21T07:17:16;103677.94;;;3.59;100.00
13420;BME280;6781;58.440;15.470;2024-02-21T07:19:43;103686.50;;;3.70;100.00
13420;BME280;6781;58.440;15.470;2024-02-21T07:22:10;103691.63;;;3.70;100.00
13420;BME280;6781;58.440;15.470;2024-02-21T07:24:37;103704.47;;;3.79;100.00
13420;BME280;6781;58.440;15.470;2024-02-21T07:27:04;103713.88;;;3.80;100.00
13420;BME280;6781;58.440;15.470;2024-02-21T07:29:31;103711.31;;;3.77;100.00
13420;BME280;6781;58.440;15.470;2024-02-21T07:31:57;103718.16;;;3.83;100.00
13420;BME280;6781;58.440;15.470;2024-02-21T07:34:26;103710.47;;;3.84;100.00
13420;BME280;6781;58.440;15.470;2024-02-21T07:36:52;103714.75;;;3.87;100.00
13420;BME280;6781;58.440;15.470;2024-02-21T07:39:19;103725.88;;;3.84;100.00
13420;BME280;6781;58.440;15.470;2024-02-21T07:41:47;103725.00;;;3.82;100.00
13420;BME280;6781;58.440;15.470;2024-02-21T07:44:14;103725.88;;;3.81;100.00
13420;BME280;6781;58.440;15.470;2024-02-21T07:46:41;103736.13;;;3.87;100.00
13420;BME280;6781;58.440;15.470;2024-02-21T07:49:07;103719.88;;;3.78;100.00
13420;BME280;6781;58.440;15.470;2024-02-21T07:51:36;103733.56;;;3.87;100.00
13420;BME280;6781;58.440;15.470;2024-02-21T07:54:03;103734.44;;;3.89;100.00
13420;BME280;6781;58.440;15.470;2024-02-21T07:56:30;103738.69;;;3.95;100.00
13420;BME280;6781;58.440;15.470;2024-02-21T07:58:57;103743.84;;;4.00;100.00
13420;BME280;6781;58.440;15.470;2024-02-21T08:01:24;103744.69;;;4.05;100.00
13420;BME280;6781;58.440;15.470;2024-02-21T08:03:51;103733.56;;;3.98;100.00
13420;BME280;6781;58.440;15.470;2024-02-21T08:06:18;103733.56;;;3.95;100.00
13420;BME280;6781;58.440;15.470;2024-02-21T08:08:46;103739.56;;;4.05;100.00
13420;BME280;6781;58.440;15.470;2024-02-21T08:11:13;103736.97;;;4.09;100.00
13420;BME280;6781;58.440;15.470;2024-02-21T08:13:39;103737.84;;;4.13;100.00
13420;BME280;6781;58.440;15.470;2024-02-21T08:16:06;103735.28;;;4.14;100.00
13420;BME280;6781;58.440;15.470;2024-02-21T08:18:33;103738.69;;;4.21;100.00
13420;BME280;6781;58.440;15.470;2024-02-21T08:21:01;103729.28;;;4.17;100.00
13420;BME280;6781;58.440;15.470;2024-02-21T08:23:30;103736.97;;;4.24;100.00
13420;BME280;6781;58.440;15.470;2024-02-21T08:25:58;103741.25;;;4.33;100.00
13420;BME280;6781;58.440;15.470;2024-02-21T08:28:25;103743.81;;;4.36;100.00
13420;BME280;6781;58.440;15.470;2024-02-21T08:30:51;103749.78;;;4.41;100.00
13420;BME280;6781;58.440;15.470;2024-02-21T08:33:18;103741.22;;;4.42;100.00
13420;BME280;6781;58.440;15.470;2024-02-21T08:35:49;103744.66;;;4.44;100.00
13420;BME280;6781;58.440;15.470;2024-02-21T08:38:16;103738.66;;;4.44;100.00
13420;BME280;6781;58.440;15.470;2024-02-21T08:40:43;103734.38;;;4.44;100.00
13420;BME280;6781;58.440;15.470;2024-02-21T08:43:12;103733.50;;;4.47;100.00
13420;BME280;6781;58.440;15.470;2024-02-21T08:45:39;103722.34;;;4.49;100.00
13420;BME280;6781;58.440;15.470;2024-02-21T08:48:06;103730.94;;;4.48;100.00
13420;BME280;6781;58.440;15.470;2024-02-21T08:50:33;103706.97;;;4.37;100.00
13420;BME280;6781;58.440;15.470;2024-02-21T08:53:01;103710.38;;;4.45;100.00
13420;BME280;6781;58.440;15.470;2024-02-21T08:55:28;103699.25;;;4.46;100.00
13420;BME280;6781;58.440;15.470;2024-02-21T08:57:55;103693.25;;;4.41;100.00
13420;BME280;6781;58.440;15.470;2024-02-21T09:00:23;103683.84;;;4.43;100.00
13420;BME280;6781;58.440;15.470;2024-02-21T09:02:52;103682.97;;;4.44;100.00
13420;BME280;6781;58.440;15.470;2024-02-21T09:05:21;103664.16;;;4.36;100.00
13420;BME280;6781;58.440;15.470;2024-02-21T09:07:48;103662.41;;;4.50;100.00
13420;BME280;6781;58.440;15.470;2024-02-21T09:10:14;103662.41;;;4.50;100.00
13420;BME280;6781;58.440;15.470;2024-02-21T09:12:41;103658.97;;;4.51;100.00
13420;BME280;6781;58.440;15.470;2024-02-21T09:15:09;103653.78;;;4.57;100.00
13420;BME280;6781;58.440;15.470;2024-02-21T09:17:37;103650.41;;;4.51;100.00
13420;BME280;6781;58.440;15.470;2024-02-21T09:20:05;103651.25;;;4.54;100.00
13420;BME280;6781;58.440;15.470;2024-02-21T09:22:33;103645.25;;;4.52;100.00
13420;BME280;6781;58.440;15.470;2024-02-21T09:24:59;103634.97;;;4.52;100.00
13420;BME280;6781;58.440;15.470;2024-02-21T09:27:26;103641.78;;;4.63;100.00
13420;BME280;6781;58.440;15.470;2024-02-21T09:29:53;103641.75;;;4.69;100.00
13420;BME280;6781;58.440;15.470;2024-02-21T09:32:20;103647.72;;;4.75;100.00
13420;BME280;6781;58.440;15.470;2024-02-21T09:34:48;103661.38;;;4.85;100.00
13420;BME280;6781;58.440;15.470;2024-02-21T09:37:15;103662.22;;;4.87;100.00
13420;BME280;6781;58.440;15.470;2024-02-21T09:39:41;103657.09;;;4.88;100.00
13420;BME280;6781;58.440;15.470;2024-02-21T09:42:11;103648.50;;;4.91;100.00
13420;BME280;6781;58.440;15.470;2024-02-21T09:44:38;103654.44;;;5.02;100.00
13420;BME280;6781;58.440;15.470;2024-02-21T09:47:06;103646.69;;;5.07;100.00
13420;BME280;6781;58.440;15.470;2024-02-21T09:49:33;103653.50;;;5.15;100.00
13420;BME280;6781;58.440;15.470;2024-02-21T09:52:05;103655.97;;;5.24;100.00
13420;BME280;6781;58.440;15.470;2024-02-21T09:54:32;103649.94;;;5.29;100.00
13420;BME280;6781;58.440;15.470;2024-02-21T09:56:59;103649.06;;;5.31;100.00
13420;BME280;6781;58.440;15.470;2024-02-21T09:59:26;103661.88;;;5.39;100.00
13420;BME280;6781;58.440;15.470;2024-02-21T10:01:54;103648.13;;;5.43;100.00
13420;BME280;6781;58.440;15.470;2024-02-21T10:04:20;103657.44;;;5.57;100.00
13420;BME280;6781;58.440;15.470;2024-02-21T10:06:47;103662.56;;;5.62;100.00
13420;BME280;6781;58.440;15.470;2024-02-21T10:09:22;103653.88;;;5.71;100.00
13420;BME280;6781;58.440;15.470;2024-02-21T10:11:49;103658.13;;;5.76;100.00
13420;BME280;6781;58.440;15.470;2024-02-21T10:14:16;103670.84;;;5.99;100.00
13420;BME280;6781;58.440;15.470;2024-02-21T10:16:43;103667.34;;;6.05;100.00
13420;BME280;6781;58.440;15.470;2024-02-21T10:19:17;103662.09;;;6.14;100.00
13420;BME280;6781;58.440;15.470;2024-02-21T10:21:44;103645.81;;;6.09;100.00
13420;BME280;6781;58.440;15.470;2024-02-21T10:24:11;103618.41;;;6.02;100.00
13420;BME280;6781;58.440;15.470;2024-02-21T10:26:40;103604.66;;;6.03;100.00
13420;BME280;6781;58.440;15.470;2024-02-21T10:29:07;103571.28;;;5.94;100.00
13420;BME280;6781;58.440;15.470;2024-02-21T10:31:36;103556.69;;;5.93;100.00
13420;BME280;6781;58.440;15.470;2024-02-21T10:34:04;103521.56;;;5.84;100.00
13420;BME280;6781;58.440;15.470;2024-02-21T10:36:30;103492.50;;;5.74;100.00
13420;BME280;6781;58.440;15.470;2024-02-21T10:38:57;103452.28;;;5.64;100.00
13420;BME280;6781;58.440;15.470;2024-02-21T10:41:24;103435.16;;;5.60;100.00
13420;BME280;6781;58.440;15.470;2024-02-21T10:43:54;103406.00;;;5.58;100.00
13420;BME280;6781;58.440;15.470;2024-02-21T10:46:21;103385.31;;;5.64;100.00
13420;BME280;6781;58.440;15.470;2024-02-21T10:48:55;103379.19;;;5.74;100.00
13420;BME280;6781;58.440;15.470;2024-02-21T10:51:25;103374.72;;;5.90;100.00
13420;BME280;6781;58.440;15.470;2024-02-21T10:53:57;103380.41;;;6.12;100.00
13420;BME280;6781;58.440;15.470;2024-02-21T10:56:28;103380.97;;;6.31;100.00
13420;BME280;6781;58.440;15.470;2024-02-21T10:58:58;103360.13;;;6.44;100.00
13420;BME280;6781;58.440;15.470;2024-02-21T11:01:24;103351.34;;;6.55;100.00
13420;BME280;6781;58.440;15.470;2024-02-21T11:03:54;103313.56;;;6.53;100.00
13420;BME280;6781;58.440;15.470;2024-02-21T11:06:22;103257.19;;;6.35;100.00
13420;BME280;6781;58.440;15.470;2024-02-21T11:08:59;103240.69;;;6.44;100.00
13420;BME280;6781;58.440;15.470;2024-02-21T11:11:26;103290.63;;;6.38;100.00
13420;BME280;6781;58.440;15.470;2024-02-21T11:13:52;103281.22;;;6.36;100.00
13420;BME280;6781;58.440;15.470;2024-02-21T11:16:22;103263.09;;;6.40;100.00
13420;BME280;6781;58.440;15.470;2024-02-21T11:18:49;103069.16;;;6.29;100.00
13420;BME280;6781;58.440;15.470;2024-02-21T11:21:16;103023.84;;;6.19;100.00
13420;BME280;6781;58.440;15.470;2024-02-21T11:23:43;102984.44;;;6.14;100.00
13420;BME280;6781;58.440;15.470;2024-02-21T11:26:10;102955.34;;;6.10;100.00
13420;BME280;6781;58.440;15.470;2024-02-21T11:28:37;102921.00;;;6.10;100.00
13420;BME280;6781;58.440;15.470;2024-02-21T11:31:06;102881.69;;;6.02;100.00
13420;BME280;6781;58.440;15.470;2024-02-21T11:33:35;102856.81;;;6.01;100.00
13420;BME280;6781;58.440;15.470;2024-02-21T11:36:02;102833.69;;;5.98;100.00
13420;BME280;6781;58.440;15.470;2024-02-21T11:38:30;102818.09;;;6.04;100.00
13420;BME280;6781;58.440;15.470;2024-02-21T11:40:56;102808.41;;;6.13;100.00
13420;BME280;6781;58.440;15.470;2024-02-21T11:43:26;102775.91;;;6.08;100.00
13420;BME280;6781;58.440;15.470;2024-02-21T11:45:58;102738.41;;;5.98;100.00
13420;BME280;6781;58.440;15.470;2024-02-21T11:48:25;102738.91;;;6.12;100.00
13420;BME280;6781;58.440;15.470;2024-02-21T11:50:54;102725.78;;;6.21;100.00
13420;BME280;6781;58.440;15.470;2024-02-21T11:53:21;102696.72;;;6.16;100.00
13420;BME280;6781;58.440;15.470;2024-02-21T11:55:48;102645.69;;;5.98;100.00
13420;BME280;6781;58.440;15.470;2024-02-21T11:58:15;102618.38;;;5.92;100.00
13420;BME280;6781;58.440;15.470;2024-02-21T12:00:42;102599.28;;;5.99;100.00
13420;BME280;6781;58.440;15.470;2024-02-21T12:03:08;102592.94;;;6.11;100.00
13420;BME280;6781;58.440;15.470;2024-02-21T12:05:35;102562.38;;;5.99;100.00
13420;BME280;6781;58.440;15.470;2024-02-21T12:08:04;102554.16;;;6.17;100.00
13420;BME280;6781;58.440;15.470;2024-02-21T12:10:31;102535.03;;;6.24;100.00
13420;BME280;6781;58.440;15.470;2024-02-21T12:13:06;102511.94;;;6.21;100.00
13420;BME280;6781;58.440;15.470;2024-02-21T12:15:34;102467.53;;;6.13;100.00
13420;BME280;6781;58.440;15.470;2024-02-21T12:18:01;102459.72;;;6.16;100.00
13420;BME280;6781;58.440;15.470;2024-02-21T12:20:28;102414.41;;;6.09;100.00
13420;BME280;6781;58.440;15.470;2024-02-21T12:22:56;102399.81;;;6.09;100.00
13420;BME280;6781;58.440;15.470;2024-02-21T12:25:25;102407.09;;;6.23;100.00
13420;BME280;6781;58.440;15.470;2024-02-21T12:27:53;102382.44;;;6.16;100.00
13420;BME280;6781;58.440;15.470;2024-02-21T12:30:19;102370.41;;;6.16;100.00
13420;BME280;6781;58.440;15.470;2024-02-21T12:32:46;102349.13;;;6.10;100.00
13420;BME280;6781;58.440;15.470;2024-02-21T12:35:13;102335.41;;;6.09;100.00
13420;BME280;6781;58.440;15.470;2024-02-21T12:37:40;102320.00;;;6.08;100.00
13420;BME280;6781;58.440;15.470;2024-02-21T12:40:08;102324.88;;;6.17;100.00
13420;BME280;6781;58.440;15.470;2024-02-21T12:42:37;102307.03;;;6.11;100.00
13420;BME280;6781;58.440;15.470;2024-02-21T12:45:04;102314.88;;;6.08;100.00
13420;BME280;6781;58.440;15.470;2024-02-21T12:47:31;102329.56;;;6.04;100.00
13420;BME280;6781;58.440;15.470;2024-02-21T12:49:58;102331.66;;;5.93;100.00
13420;BME280;6781;58.440;15.470;2024-02-21T12:52:25;102353.72;;;5.72;100.00